sensor_id;sensor_type;location;lat;lon;timestamp;P1;durP1;ratioP1;P2;durP2;ratioP2
7338;SDS011;33747;49.524;8.390;2023-11-18T00:01:21;13.82;;;9.43;;
7338;SDS011;33747;49.524;8.390;2023-11-18T00:03:46;12.90;;;8.93;;
7338;SDS011;33747;49.524;8.390;2023-11-18T00:06:11;14.95;;;8.93;;
7338;SDS011;33747;49.524;8.390;2023-11-18T00:08:37;12.57;;;7.43;;
7338;SDS011;33747;49.524;8.390;2023-11-18T00:11:03;7.95;;;6.57;;
7338;SDS011;33747;49.524;8.390;2023-11-18T00:13:28;9.45;;;6.85;;
7338;SDS011;33747;49.524;8.390;2023-11-18T00:15:54;10.02;;;6.75;;
7338;SDS011;33747;49.524;8.390;2023-11-18T00:18:19;6.60;;;5.15;;
7338;SDS011;33747;49.524;8.390;2023-11-18T00:20:45;6.43;;;5.30;;
7338;SDS011;33747;49.524;8.390;2023-11-18T00:23:11;10.15;;;5.70;;
7338;SDS011;33747;49.524;8.390;2023-11-18T00:25:36;6.15;;;4.70;;
7338;SDS011;33747;49.524;8.390;2023-11-18T00:28:04;10.90;;;5.78;;
7338;SDS011;33747;49.524;8.390;2023-11-18T00:30:32;7.60;;;5.63;;
7338;SDS011;33747;49.524;8.390;2023-11-18T00:32:57;7.78;;;4.60;;
7338;SDS011;33747;49.524;8.390;2023-11-18T00:35:23;9.18;;;4.95;;
7338;SDS011;33747;49.524;8.390;2023-11-18T00:37:48;6.47;;;5.20;;
7338;SDS011;33747;49.524;8.390;2023-11-18T00:40:13;9.32;;;5.80;;
7338;SDS011;33747;49.524;8.390;2023-11-18T00:42:39;10.23;;;5.07;;
7338;SDS011;33747;49.524;8.390;2023-11-18T00:45:04;6.95;;;5.30;;
7338;SDS011;33747;49.524;8.390;2023-11-18T00:47:30;6.18;;;5.43;;
7338;SDS011;33747;49.524;8.390;2023-11-18T00:49:55;5.90;;;4.72;;
7338;SDS011;33747;49.524;8.390;2023-11-18T00:52:22;12.88;;;6.13;;
7338;SDS011;33747;49.524;8.390;2023-11-18T00:54:47;8.52;;;5.28;;
7338;SDS011;33747;49.524;8.390;2023-11-18T00:57:13;10.95;;;5.70;;
7338;SDS011;33747;49.524;8.390;2023-11-18T00:59:41;10.15;;;6.22;;
7338;SDS011;33747;49.524;8.390;2023-11-18T01:02:07;10.45;;;5.60;;
7338;SDS011;33747;49.524;8.390;2023-11-18T01:04:33;7.68;;;5.90;;
7338;SDS011;33747;49.524;8.390;2023-11-18T01:06:59;8.48;;;6.32;;
7338;SDS011;33747;49.524;8.390;2023-11-18T01:09:24;9.77;;;6.32;;
7338;SDS011;33747;49.524;8.390;2023-11-18T01:11:50;8.05;;;6.00;;
7338;SDS011;33747;49.524;8.390;2023-11-18T01:14:15;10.77;;;6.45;;
7338;SDS011;33747;49.524;8.390;2023-11-18T01:16:42;9.85;;;6.47;;
7338;SDS011;33747;49.524;8.390;2023-11-18T01:19:08;9.93;;;6.22;;
7338;SDS011;33747;49.524;8.390;2023-11-18T01:21:34;8.38;;;6.50;;
7338;SDS011;33747;49.524;8.390;2023-11-18T01:24:00;15.65;;;8.45;;
7338;SDS011;33747;49.524;8.390;2023-11-18T01:26:26;15.18;;;7.22;;
7338;SDS011;33747;49.524;8.390;2023-11-18T01:28:52;12.65;;;8.20;;
7338;SDS011;33747;49.524;8.390;2023-11-18T01:31:17;19.92;;;9.73;;
7338;SDS011;33747;49.524;8.390;2023-11-18T01:33:42;19.73;;;10.07;;
7338;SDS011;33747;49.524;8.390;2023-11-18T01:36:10;14.55;;;9.10;;
7338;SDS011;33747;49.524;8.390;2023-11-18T01:38:36;16.55;;;8.25;;
7338;SDS011;33747;49.524;8.390;2023-11-18T01:41:05;22.45;;;9.55;;
7338;SDS011;33747;49.524;8.390;2023-11-18T01:43:31;19.05;;;8.43;;
7338;SDS011;33747;49.524;8.390;2023-11-18T01:45:59;12.45;;;8.88;;
7338;SDS011;33747;49.524;8.390;2023-11-18T01:48:27;15.52;;;8.30;;
7338;SDS011;33747;49.524;8.390;2023-11-18T01:50:54;13.88;;;8.32;;
7338;SDS011;33747;49.524;8.390;2023-11-18T01:53:23;13.93;;;8.30;;
7338;SDS011;33747;49.524;8.390;2023-11-18T01:55:49;11.13;;;7.63;;
7338;SDS011;33747;49.524;8.390;2023-11-18T01:58:14;13.30;;;7.85;;
7338;SDS011;33747;49.524;8.390;2023-11-18T02:00:44;11.48;;;7.97;;
7338;SDS011;33747;49.524;8.390;2023-11-18T02:03:11;14.43;;;7.82;;
7338;SDS011;33747;49.524;8.390;2023-11-18T02:05:36;15.02;;;8.35;;
7338;SDS011;33747;49.524;8.390;2023-11-18T02:08:02;11.68;;;7.63;;
7338;SDS011;33747;49.524;8.390;2023-11-18T02:10:34;12.50;;;7.63;;
7338;SDS011;33747;49.524;8.390;2023-11-18T02:13:06;10.05;;;7.43;;
7338;SDS011;33747;49.524;8.390;2023-11-18T02:15:37;12.23;;;7.03;;
7338;SDS011;33747;49.524;8.390;2023-11-18T02:18:04;14.32;;;8.43;;
7338;SDS011;33747;49.524;8.390;2023-11-18T02:20:34;19.30;;;10.90;;
7338;SDS011;33747;49.524;8.390;2023-11-18T02:23:00;23.40;;;13.55;;
7338;SDS011;33747;49.524;8.390;2023-11-18T02:25:26;33.20;;;14.95;;
7338;SDS011;33747;49.524;8.390;2023-11-18T02:27:53;21.13;;;12.10;;
7338;SDS011;33747;49.524;8.390;2023-11-18T02:30:19;28.75;;;14.38;;
7338;SDS011;33747;49.524;8.390;2023-11-18T02:35:25;29.48;;;15.35;;
7338;SDS011;33747;49.524;8.390;2023-11-18T02:37:54;39.92;;;16.48;;
7338;SDS011;33747;49.524;8.390;2023-11-18T02:40:27;34.33;;;16.55;;
7338;SDS011;33747;49.524;8.390;2023-11-18T02:42:58;31.48;;;14.05;;
7338;SDS011;33747;49.524;8.390;2023-11-18T02:45:25;32.60;;;16.02;;
7338;SDS011;33747;49.524;8.390;2023-11-18T02:47:50;24.80;;;13.55;;
7338;SDS011;33747;49.524;8.390;2023-11-18T02:50:16;20.70;;;11.65;;
7338;SDS011;33747;49.524;8.390;2023-11-18T02:52:44;16.75;;;9.43;;
7338;SDS011;33747;49.524;8.390;2023-11-18T02:55:09;14.30;;;8.70;;
7338;SDS011;33747;49.524;8.390;2023-11-18T02:57:36;15.30;;;9.20;;
7338;SDS011;33747;49.524;8.390;2023-11-18T03:00:01;13.52;;;8.75;;
7338;SDS011;33747;49.524;8.390;2023-11-18T03:02:29;16.00;;;8.07;;
7338;SDS011;33747;49.524;8.390;2023-11-18T03:04:57;14.52;;;9.15;;
7338;SDS011;33747;49.524;8.390;2023-11-18T03:07:23;12.55;;;9.02;;
7338;SDS011;33747;49.524;8.390;2023-11-18T03:09:48;13.93;;;9.40;;
7338;SDS011;33747;49.524;8.390;2023-11-18T03:12:14;11.70;;;7.90;;
7338;SDS011;33747;49.524;8.390;2023-11-18T03:14:39;14.98;;;9.02;;
7338;SDS011;33747;49.524;8.390;2023-11-18T03:17:04;15.93;;;9.68;;
7338;SDS011;33747;49.524;8.390;2023-11-18T03:19:32;13.68;;;8.23;;
7338;SDS011;33747;49.524;8.390;2023-11-18T03:21:59;14.25;;;8.95;;
7338;SDS011;33747;49.524;8.390;2023-11-18T03:24:25;17.55;;;9.35;;
7338;SDS011;33747;49.524;8.390;2023-11-18T03:26:50;15.95;;;9.57;;
7338;SDS011;33747;49.524;8.390;2023-11-18T03:29:16;13.88;;;9.30;;
7338;SDS011;33747;49.524;8.390;2023-11-18T03:31:41;12.10;;;9.07;;
7338;SDS011;33747;49.524;8.390;2023-11-18T03:34:09;15.57;;;9.75;;
7338;SDS011;33747;49.524;8.390;2023-11-18T03:36:35;13.80;;;9.57;;
7338;SDS011;33747;49.524;8.390;2023-11-18T03:39:00;15.88;;;9.07;;
7338;SDS011;33747;49.524;8.390;2023-11-18T03:41:26;13.05;;;9.57;;
7338;SDS011;33747;49.524;8.390;2023-11-18T03:43:52;12.82;;;9.45;;
7338;SDS011;33747;49.524;8.390;2023-11-18T03:46:17;14.10;;;9.05;;
7338;SDS011;33747;49.524;8.390;2023-11-18T03:48:43;15.15;;;9.57;;
7338;SDS011;33747;49.524;8.390;2023-11-18T03:51:09;14.93;;;9.68;;
7338;SDS011;33747;49.524;8.390;2023-11-18T03:53:34;12.10;;;8.88;;
7338;SDS011;33747;49.524;8.390;2023-11-18T03:56:00;13.05;;;8.80;;
7338;SDS011;33747;49.524;8.390;2023-11-18T03:58:27;15.05;;;9.45;;
7338;SDS011;33747;49.524;8.390;2023-11-18T04:00:52;18.98;;;9.40;;
7338;SDS011;33747;49.524;8.390;2023-11-18T04:03:18;18.42;;;9.20;;
7338;SDS011;33747;49.524;8.390;2023-11-18T04:05:44;12.80;;;8.77;;
7338;SDS011;33747;49.524;8.390;2023-11-18T04:08:09;11.68;;;8.60;;
7338;SDS011;33747;49.524;8.390;2023-11-18T04:10:36;9.82;;;8.13;;
7338;SDS011;33747;49.524;8.390;2023-11-18T04:13:02;13.30;;;7.75;;
7338;SDS011;33747;49.524;8.390;2023-11-18T04:15:27;13.18;;;9.00;;
7338;SDS011;33747;49.524;8.390;2023-11-18T04:17:52;14.18;;;9.20;;
7338;SDS011;33747;49.524;8.390;2023-11-18T04:20:18;14.48;;;9.45;;
7338;SDS011;33747;49.524;8.390;2023-11-18T04:22:43;14.68;;;8.75;;
7338;SDS011;33747;49.524;8.390;2023-11-18T04:25:10;13.52;;;9.27;;
7338;SDS011;33747;49.524;8.390;2023-11-18T04:27:36;15.18;;;9.27;;
7338;SDS011;33747;49.524;8.390;2023-11-18T04:30:05;13.07;;;9.65;;
7338;SDS011;33747;49.524;8.390;2023-11-18T04:32:31;14.65;;;10.77;;
7338;SDS011;33747;49.524;8.390;2023-11-18T04:34:59;17.80;;;10.77;;
7338;SDS011;33747;49.524;8.390;2023-11-18T04:37:31;16.27;;;11.70;;
7338;SDS011;33747;49.524;8.390;2023-11-18T04:39:57;17.27;;;11.52;;
7338;SDS011;33747;49.524;8.390;2023-11-18T04:42:22;15.23;;;11.23;;
7338;SDS011;33747;49.524;8.390;2023-11-18T04:44:48;17.58;;;12.70;;
7338;SDS011;33747;49.524;8.390;2023-11-18T04:47:13;16.60;;;12.73;;
7338;SDS011;33747;49.524;8.390;2023-11-18T04:49:39;15.30;;;12.48;;
7338;SDS011;33747;49.524;8.390;2023-11-18T04:52:05;16.65;;;12.05;;
7338;SDS011;33747;49.524;8.390;2023-11-18T04:54:31;26.92;;;13.02;;
7338;SDS011;33747;49.524;8.390;2023-11-18T04:56:56;21.75;;;14.15;;
7338;SDS011;33747;49.524;8.390;2023-11-18T04:59:23;20.42;;;13.43;;
7338;SDS011;33747;49.524;8.390;2023-11-18T05:01:48;20.17;;;14.38;;
7338;SDS011;33747;49.524;8.390;2023-11-18T05:04:13;21.42;;;15.75;;
7338;SDS011;33747;49.524;8.390;2023-11-18T05:06:39;21.38;;;16.13;;
7338;SDS011;33747;49.524;8.390;2023-11-18T05:09:04;17.00;;;12.73;;
7338;SDS011;33747;49.524;8.390;2023-11-18T05:11:32;14.30;;;12.25;;
7338;SDS011;33747;49.524;8.390;2023-11-18T05:13:58;20.90;;;12.15;;
7338;SDS011;33747;49.524;8.390;2023-11-18T05:16:24;17.42;;;11.55;;
7338;SDS011;33747;49.524;8.390;2023-11-18T05:18:49;18.15;;;12.30;;
7338;SDS011;33747;49.524;8.390;2023-11-18T05:21:14;17.42;;;11.77;;
7338;SDS011;33747;49.524;8.390;2023-11-18T05:23:40;17.42;;;11.82;;
7338;SDS011;33747;49.524;8.390;2023-11-18T05:26:05;16.95;;;10.98;;
7338;SDS011;33747;49.524;8.390;2023-11-18T05:28:31;18.33;;;11.57;;
7338;SDS011;33747;49.524;8.390;2023-11-18T05:30:57;18.02;;;11.55;;
7338;SDS011;33747;49.524;8.390;2023-11-18T05:33:29;16.00;;;10.68;;
7338;SDS011;33747;49.524;8.390;2023-11-18T05:35:56;15.88;;;11.43;;
7338;SDS011;33747;49.524;8.390;2023-11-18T05:38:22;20.85;;;11.77;;
7338;SDS011;33747;49.524;8.390;2023-11-18T05:40:49;20.27;;;11.63;;
7338;SDS011;33747;49.524;8.390;2023-11-18T05:43:27;21.20;;;11.90;;
7338;SDS011;33747;49.524;8.390;2023-11-18T05:46:05;26.70;;;12.00;;
7338;SDS011;33747;49.524;8.390;2023-11-18T05:48:45;33.63;;;11.75;;
7338;SDS011;33747;49.524;8.390;2023-11-18T05:51:10;25.77;;;13.77;;
7338;SDS011;33747;49.524;8.390;2023-11-18T05:53:40;20.25;;;11.98;;
7338;SDS011;33747;49.524;8.390;2023-11-18T05:56:06;24.50;;;14.10;;
7338;SDS011;33747;49.524;8.390;2023-11-18T05:58:32;20.52;;;13.98;;
7338;SDS011;33747;49.524;8.390;2023-11-18T06:00:58;29.50;;;13.55;;
7338;SDS011;33747;49.524;8.390;2023-11-18T06:03:23;24.63;;;13.77;;
7338;SDS011;33747;49.524;8.390;2023-11-18T06:05:48;21.95;;;13.25;;
7338;SDS011;33747;49.524;8.390;2023-11-18T06:08:14;34.03;;;13.75;;
7338;SDS011;33747;49.524;8.390;2023-11-18T06:10:39;32.97;;;12.05;;
7338;SDS011;33747;49.524;8.390;2023-11-18T06:13:06;29.23;;;12.80;;
7338;SDS011;33747;49.524;8.390;2023-11-18T06:15:31;15.52;;;11.30;;
7338;SDS011;33747;49.524;8.390;2023-11-18T06:17:58;14.90;;;10.05;;
7338;SDS011;33747;49.524;8.390;2023-11-18T06:20:23;17.17;;;10.80;;
7338;SDS011;33747;49.524;8.390;2023-11-18T06:22:49;14.30;;;9.48;;
7338;SDS011;33747;49.524;8.390;2023-11-18T06:25:14;16.50;;;9.38;;
7338;SDS011;33747;49.524;8.390;2023-11-18T06:27:42;12.30;;;9.45;;
7338;SDS011;33747;49.524;8.390;2023-11-18T06:30:10;14.30;;;10.82;;
7338;SDS011;33747;49.524;8.390;2023-11-18T06:32:37;14.10;;;10.27;;
7338;SDS011;33747;49.524;8.390;2023-11-18T06:35:04;11.32;;;9.43;;
7338;SDS011;33747;49.524;8.390;2023-11-18T06:37:33;14.30;;;10.13;;
7338;SDS011;33747;49.524;8.390;2023-11-18T06:39:58;14.73;;;9.77;;
7338;SDS011;33747;49.524;8.390;2023-11-18T06:42:24;13.30;;;10.15;;
7338;SDS011;33747;49.524;8.390;2023-11-18T06:44:49;17.25;;;9.30;;
7338;SDS011;33747;49.524;8.390;2023-11-18T06:47:14;15.63;;;9.55;;
7338;SDS011;33747;49.524;8.390;2023-11-18T06:49:43;17.00;;;11.10;;
7338;SDS011;33747;49.524;8.390;2023-11-18T06:52:08;14.30;;;10.23;;
7338;SDS011;33747;49.524;8.390;2023-11-18T06:54:37;12.73;;;10.02;;
7338;SDS011;33747;49.524;8.390;2023-11-18T06:57:06;16.27;;;10.05;;
7338;SDS011;33747;49.524;8.390;2023-11-18T06:59:32;16.45;;;9.98;;
7338;SDS011;33747;49.524;8.390;2023-11-18T07:01:57;15.27;;;9.98;;
7338;SDS011;33747;49.524;8.390;2023-11-18T07:04:23;14.25;;;10.55;;
7338;SDS011;33747;49.524;8.390;2023-11-18T07:06:49;16.35;;;10.18;;
7338;SDS011;33747;49.524;8.390;2023-11-18T07:09:14;12.38;;;9.27;;
7338;SDS011;33747;49.524;8.390;2023-11-18T07:11:43;11.80;;;9.75;;
7338;SDS011;33747;49.524;8.390;2023-11-18T07:14:09;15.25;;;10.38;;
7338;SDS011;33747;49.524;8.390;2023-11-18T07:16:37;12.88;;;10.35;;
7338;SDS011;33747;49.524;8.390;2023-11-18T07:19:03;11.13;;;9.05;;
7338;SDS011;33747;49.524;8.390;2023-11-18T07:21:28;13.65;;;9.15;;
7338;SDS011;33747;49.524;8.390;2023-11-18T07:23:54;11.05;;;9.10;;
7338;SDS011;33747;49.524;8.390;2023-11-18T07:26:19;12.45;;;9.15;;
7338;SDS011;33747;49.524;8.390;2023-11-18T07:28:45;12.88;;;9.75;;
7338;SDS011;33747;49.524;8.390;2023-11-18T07:31:10;13.32;;;9.13;;
7338;SDS011;33747;49.524;8.390;2023-11-18T07:33:36;19.13;;;9.57;;
7338;SDS011;33747;49.524;8.390;2023-11-18T07:36:02;12.15;;;10.30;;
7338;SDS011;33747;49.524;8.390;2023-11-18T07:38:30;13.48;;;9.73;;
7338;SDS011;33747;49.524;8.390;2023-11-18T07:40:57;12.70;;;10.57;;
7338;SDS011;33747;49.524;8.390;2023-11-18T07:43:22;13.35;;;10.07;;
7338;SDS011;33747;49.524;8.390;2023-11-18T07:45:48;13.05;;;10.73;;
7338;SDS011;33747;49.524;8.390;2023-11-18T07:48:18;31.70;;;19.75;;
7338;SDS011;33747;49.524;8.390;2023-11-18T07:50:45;28.27;;;17.17;;
7338;SDS011;33747;49.524;8.390;2023-11-18T07:53:11;16.98;;;11.15;;
7338;SDS011;33747;49.524;8.390;2023-11-18T07:55:36;12.52;;;10.38;;
7338;SDS011;33747;49.524;8.390;2023-11-18T07:58:05;15.38;;;10.93;;
7338;SDS011;33747;49.524;8.390;2023-11-18T08:00:36;16.65;;;11.20;;
7338;SDS011;33747;49.524;8.390;2023-11-18T08:03:05;13.73;;;10.77;;
7338;SDS011;33747;49.524;8.390;2023-11-18T08:05:36;13.27;;;10.15;;
7338;SDS011;33747;49.524;8.390;2023-11-18T08:08:01;13.45;;;10.52;;
7338;SDS011;33747;49.524;8.390;2023-11-18T08:10:27;14.35;;;11.00;;
7338;SDS011;33747;49.524;8.390;2023-11-18T08:12:53;13.98;;;10.45;;
7338;SDS011;33747;49.524;8.390;2023-11-18T08:15:19;16.55;;;10.93;;
7338;SDS011;33747;49.524;8.390;2023-11-18T08:17:45;16.02;;;10.88;;
7338;SDS011;33747;49.524;8.390;2023-11-18T08:20:10;14.35;;;11.10;;
7338;SDS011;33747;49.524;8.390;2023-11-18T08:22:39;14.48;;;9.85;;
7338;SDS011;33747;49.524;8.390;2023-11-18T08:25:06;17.20;;;10.35;;
7338;SDS011;33747;49.524;8.390;2023-11-18T08:27:33;17.67;;;10.50;;
7338;SDS011;33747;49.524;8.390;2023-11-18T08:29:59;14.43;;;10.45;;
7338;SDS011;33747;49.524;8.390;2023-11-18T08:32:24;15.23;;;9.80;;
7338;SDS011;33747;49.524;8.390;2023-11-18T08:34:50;14.70;;;10.05;;
7338;SDS011;33747;49.524;8.390;2023-11-18T08:37:16;11.43;;;9.25;;
7338;SDS011;33747;49.524;8.390;2023-11-18T08:39:41;12.50;;;8.80;;
7338;SDS011;33747;49.524;8.390;2023-11-18T08:42:07;12.73;;;9.02;;
7338;SDS011;33747;49.524;8.390;2023-11-18T08:44:32;11.18;;;8.75;;
7338;SDS011;33747;49.524;8.390;2023-11-18T08:46:58;9.55;;;8.35;;
7338;SDS011;33747;49.524;8.390;2023-11-18T08:49:24;11.93;;;8.38;;
7338;SDS011;33747;49.524;8.390;2023-11-18T08:51:50;11.15;;;7.90;;
7338;SDS011;33747;49.524;8.390;2023-11-18T08:54:21;22.13;;;12.63;;
7338;SDS011;33747;49.524;8.390;2023-11-18T08:57:02;11.50;;;8.82;;
7338;SDS011;33747;49.524;8.390;2023-11-18T08:59:49;9.85;;;7.95;;
7338;SDS011;33747;49.524;8.390;2023-11-18T09:02:17;10.65;;;8.25;;
7338;SDS011;33747;49.524;8.390;2023-11-18T09:04:42;12.02;;;8.25;;
7338;SDS011;33747;49.524;8.390;2023-11-18T09:07:08;11.60;;;8.95;;
7338;SDS011;33747;49.524;8.390;2023-11-18T09:09:35;13.50;;;9.13;;
7338;SDS011;33747;49.524;8.390;2023-11-18T09:12:00;11.18;;;8.20;;
7338;SDS011;33747;49.524;8.390;2023-11-18T09:14:27;11.52;;;8.82;;
7338;SDS011;33747;49.524;8.390;2023-11-18T09:16:53;13.13;;;8.98;;
7338;SDS011;33747;49.524;8.390;2023-11-18T09:19:23;12.90;;;9.32;;
7338;SDS011;33747;49.524;8.390;2023-11-18T09:21:49;14.82;;;8.88;;
7338;SDS011;33747;49.524;8.390;2023-11-18T09:24:16;12.55;;;8.05;;
7338;SDS011;33747;49.524;8.390;2023-11-18T09:29:16;10.50;;;8.25;;
7338;SDS011;33747;49.524;8.390;2023-11-18T09:31:47;10.20;;;7.35;;
7338;SDS011;33747;49.524;8.390;2023-11-18T09:34:17;11.50;;;8.38;;
7338;SDS011;33747;49.524;8.390;2023-11-18T09:36:43;14.88;;;7.53;;
7338;SDS011;33747;49.524;8.390;2023-11-18T09:39:09;13.32;;;7.93;;
7338;SDS011;33747;49.524;8.390;2023-11-18T09:41:53;10.88;;;7.22;;
7338;SDS011;33747;49.524;8.390;2023-11-18T09:44:21;11.23;;;7.50;;
7338;SDS011;33747;49.524;8.390;2023-11-18T09:46:48;16.30;;;8.43;;
7338;SDS011;33747;49.524;8.390;2023-11-18T09:50:06;10.10;;;6.78;;
7338;SDS011;33747;49.524;8.390;2023-11-18T09:52:09;11.20;;;7.30;;
7338;SDS011;33747;49.524;8.390;2023-11-18T09:54:45;14.63;;;7.72;;
7338;SDS011;33747;49.524;8.390;2023-11-18T09:57:19;12.60;;;7.80;;
7338;SDS011;33747;49.524;8.390;2023-11-18T09:59:54;15.55;;;7.30;;
7338;SDS011;33747;49.524;8.390;2023-11-18T10:02:44;12.25;;;7.32;;
7338;SDS011;33747;49.524;8.390;2023-11-18T10:05:11;12.07;;;6.85;;
7338;SDS011;33747;49.524;8.390;2023-11-18T10:07:41;10.35;;;6.22;;
7338;SDS011;33747;49.524;8.390;2023-11-18T10:10:06;15.40;;;6.70;;
7338;SDS011;33747;49.524;8.390;2023-11-18T10:12:39;12.18;;;6.40;;
7338;SDS011;33747;49.524;8.390;2023-11-18T10:15:07;9.55;;;6.85;;
7338;SDS011;33747;49.524;8.390;2023-11-18T10:17:36;11.80;;;6.63;;
7338;SDS011;33747;49.524;8.390;2023-11-18T10:22:50;13.50;;;6.43;;
7338;SDS011;33747;49.524;8.390;2023-11-18T10:25:30;11.57;;;6.50;;
7338;SDS011;33747;49.524;8.390;2023-11-18T10:27:56;8.57;;;5.68;;
7338;SDS011;33747;49.524;8.390;2023-11-18T10:30:22;9.05;;;5.68;;
7338;SDS011;33747;49.524;8.390;2023-11-18T10:32:58;9.18;;;5.63;;
7338;SDS011;33747;49.524;8.390;2023-11-18T10:35:34;16.70;;;5.18;;
7338;SDS011;33747;49.524;8.390;2023-11-18T10:38:02;12.70;;;5.30;;
7338;SDS011;33747;49.524;8.390;2023-11-18T10:40:33;7.72;;;5.32;;
7338;SDS011;33747;49.524;8.390;2023-11-18T10:43:02;8.38;;;4.80;;
7338;SDS011;33747;49.524;8.390;2023-11-18T10:45:34;9.77;;;4.43;;
7338;SDS011;33747;49.524;8.390;2023-11-18T10:48:04;10.32;;;4.88;;
7338;SDS011;33747;49.524;8.390;2023-11-18T10:50:30;8.77;;;5.10;;
7338;SDS011;33747;49.524;8.390;2023-11-18T10:52:57;12.43;;;5.65;;
7338;SDS011;33747;49.524;8.390;2023-11-18T10:55:34;6.88;;;4.28;;
7338;SDS011;33747;49.524;8.390;2023-11-18T10:58:00;8.13;;;4.50;;
7338;SDS011;33747;49.524;8.390;2023-11-18T11:00:26;7.68;;;4.97;;
7338;SDS011;33747;49.524;8.390;2023-11-18T11:02:58;7.07;;;4.53;;
7338;SDS011;33747;49.524;8.390;2023-11-18T11:05:27;6.28;;;4.13;;
7338;SDS011;33747;49.524;8.390;2023-11-18T11:07:57;13.98;;;4.80;;
7338;SDS011;33747;49.524;8.390;2023-11-18T11:10:24;9.88;;;4.35;;
7338;SDS011;33747;49.524;8.390;2023-11-18T11:12:53;5.40;;;4.30;;
7338;SDS011;33747;49.524;8.390;2023-11-18T11:15:22;9.23;;;4.10;;
7338;SDS011;33747;49.524;8.390;2023-11-18T11:17:48;8.38;;;4.20;;
7338;SDS011;33747;49.524;8.390;2023-11-18T11:20:21;6.30;;;4.15;;
7338;SDS011;33747;49.524;8.390;2023-11-18T11:23:09;7.95;;;4.60;;
7338;SDS011;33747;49.524;8.390;2023-11-18T11:25:41;4.72;;;3.85;;
7338;SDS011;33747;49.524;8.390;2023-11-18T11:31:38;6.82;;;4.05;;
7338;SDS011;33747;49.524;8.390;2023-11-18T11:34:04;11.55;;;4.80;;
7338;SDS011;33747;49.524;8.390;2023-11-18T11:36:42;7.32;;;4.13;;
7338;SDS011;33747;49.524;8.390;2023-11-18T11:39:08;5.85;;;4.75;;
7338;SDS011;33747;49.524;8.390;2023-11-18T11:41:39;6.80;;;4.70;;
7338;SDS011;33747;49.524;8.390;2023-11-18T11:44:09;6.63;;;4.20;;
7338;SDS011;33747;49.524;8.390;2023-11-18T11:46:34;8.40;;;4.60;;
7338;SDS011;33747;49.524;8.390;2023-11-18T11:49:02;9.52;;;4.60;;
7338;SDS011;33747;49.524;8.390;2023-11-18T11:51:50;5.05;;;4.00;;
7338;SDS011;33747;49.524;8.390;2023-11-18T11:54:21;9.18;;;4.45;;
7338;SDS011;33747;49.524;8.390;2023-11-18T11:56:49;7.53;;;4.40;;
7338;SDS011;33747;49.524;8.390;2023-11-18T11:59:53;7.07;;;4.03;;
7338;SDS011;33747;49.524;8.390;2023-11-18T12:02:21;7.32;;;3.78;;
7338;SDS011;33747;49.524;8.390;2023-11-18T12:04:52;5.78;;;4.57;;
7338;SDS011;33747;49.524;8.390;2023-11-18T12:07:22;6.95;;;4.18;;
7338;SDS011;33747;49.524;8.390;2023-11-18T12:09:58;8.45;;;4.32;;
7338;SDS011;33747;49.524;8.390;2023-11-18T12:14:54;7.50;;;3.83;;
7338;SDS011;33747;49.524;8.390;2023-11-18T12:20:45;6.28;;;3.47;;
7338;SDS011;33747;49.524;8.390;2023-11-18T12:23:18;11.13;;;4.03;;
7338;SDS011;33747;49.524;8.390;2023-11-18T12:25:48;10.38;;;3.88;;
7338;SDS011;33747;49.524;8.390;2023-11-18T12:28:19;6.95;;;3.75;;
7338;SDS011;33747;49.524;8.390;2023-11-18T12:30:55;5.35;;;3.58;;
7338;SDS011;33747;49.524;8.390;2023-11-18T12:33:24;5.28;;;3.65;;
7338;SDS011;33747;49.524;8.390;2023-11-18T12:41:38;8.48;;;4.00;;
7338;SDS011;33747;49.524;8.390;2023-11-18T12:47:00;5.68;;;4.32;;
7338;SDS011;33747;49.524;8.390;2023-11-18T12:49:39;10.23;;;4.07;;
7338;SDS011;33747;49.524;8.390;2023-11-18T12:52:08;7.53;;;4.07;;
7338;SDS011;33747;49.524;8.390;2023-11-18T12:54:34;6.20;;;3.55;;
7338;SDS011;33747;49.524;8.390;2023-11-18T12:57:02;10.13;;;3.78;;
7338;SDS011;33747;49.524;8.390;2023-11-18T12:59:31;7.18;;;4.18;;
7338;SDS011;33747;49.524;8.390;2023-11-18T13:01:57;7.78;;;3.78;;
7338;SDS011;33747;49.524;8.390;2023-11-18T13:04:23;7.63;;;3.65;;
7338;SDS011;33747;49.524;8.390;2023-11-18T13:06:49;11.13;;;3.80;;
7338;SDS011;33747;49.524;8.390;2023-11-18T13:09:16;9.30;;;3.90;;
7338;SDS011;33747;49.524;8.390;2023-11-18T13:11:53;6.05;;;3.53;;
7338;SDS011;33747;49.524;8.390;2023-11-18T13:14:23;7.32;;;2.65;;
7338;SDS011;33747;49.524;8.390;2023-11-18T13:16:53;5.10;;;3.40;;
7338;SDS011;33747;49.524;8.390;2023-11-18T13:21:51;6.50;;;3.08;;
7338;SDS011;33747;49.524;8.390;2023-11-18T13:24:17;5.18;;;3.58;;
7338;SDS011;33747;49.524;8.390;2023-11-18T13:26:42;10.52;;;3.75;;
7338;SDS011;33747;49.524;8.390;2023-11-18T13:29:08;4.43;;;3.10;;
7338;SDS011;33747;49.524;8.390;2023-11-18T13:31:34;6.57;;;3.28;;
7338;SDS011;33747;49.524;8.390;2023-11-18T13:33:59;7.57;;;4.07;;
7338;SDS011;33747;49.524;8.390;2023-11-18T13:36:25;20.70;;;4.45;;
7338;SDS011;33747;49.524;8.390;2023-11-18T13:38:50;7.22;;;3.67;;
7338;SDS011;33747;49.524;8.390;2023-11-18T13:41:28;9.75;;;3.90;;
7338;SDS011;33747;49.524;8.390;2023-11-18T13:43:56;5.38;;;2.92;;
7338;SDS011;33747;49.524;8.390;2023-11-18T13:46:23;10.45;;;3.78;;
7338;SDS011;33747;49.524;8.390;2023-11-18T13:48:49;12.45;;;5.35;;
7338;SDS011;33747;49.524;8.390;2023-11-18T13:51:14;7.05;;;3.40;;
7338;SDS011;33747;49.524;8.390;2023-11-18T13:53:41;5.88;;;3.25;;
7338;SDS011;33747;49.524;8.390;2023-11-18T13:56:08;7.13;;;3.13;;
7338;SDS011;33747;49.524;8.390;2023-11-18T13:58:37;5.78;;;2.72;;
7338;SDS011;33747;49.524;8.390;2023-11-18T14:01:06;4.90;;;2.72;;
7338;SDS011;33747;49.524;8.390;2023-11-18T14:03:33;7.25;;;2.83;;
7338;SDS011;33747;49.524;8.390;2023-11-18T14:05:59;2.97;;;2.53;;
7338;SDS011;33747;49.524;8.390;2023-11-18T14:08:27;7.78;;;2.70;;
7338;SDS011;33747;49.524;8.390;2023-11-18T14:10:53;3.90;;;2.20;;
7338;SDS011;33747;49.524;8.390;2023-11-18T14:13:19;5.72;;;2.80;;
7338;SDS011;33747;49.524;8.390;2023-11-18T14:15:44;6.40;;;2.63;;
7338;SDS011;33747;49.524;8.390;2023-11-18T14:18:10;6.75;;;2.10;;
7338;SDS011;33747;49.524;8.390;2023-11-18T14:20:36;4.28;;;2.10;;
7338;SDS011;33747;49.524;8.390;2023-11-18T14:23:02;7.80;;;2.28;;
7338;SDS011;33747;49.524;8.390;2023-11-18T14:25:31;6.22;;;2.58;;
7338;SDS011;33747;49.524;8.390;2023-11-18T14:27:56;5.88;;;2.10;;
7338;SDS011;33747;49.524;8.390;2023-11-18T14:30:22;2.65;;;1.90;;
7338;SDS011;33747;49.524;8.390;2023-11-18T14:32:50;5.05;;;2.58;;
7338;SDS011;33747;49.524;8.390;2023-11-18T14:35:16;8.95;;;2.28;;
7338;SDS011;33747;49.524;8.390;2023-11-18T14:37:44;5.97;;;2.58;;
7338;SDS011;33747;49.524;8.390;2023-11-18T14:40:13;8.88;;;2.97;;
7338;SDS011;33747;49.524;8.390;2023-11-18T14:42:40;5.60;;;2.67;;
7338;SDS011;33747;49.524;8.390;2023-11-18T14:45:08;6.07;;;3.15;;
7338;SDS011;33747;49.524;8.390;2023-11-18T14:47:34;5.50;;;3.00;;
7338;SDS011;33747;49.524;8.390;2023-11-18T14:50:00;9.35;;;2.97;;
7338;SDS011;33747;49.524;8.390;2023-11-18T14:52:27;8.25;;;2.55;;
7338;SDS011;33747;49.524;8.390;2023-11-18T14:54:53;8.38;;;2.60;;
7338;SDS011;33747;49.524;8.390;2023-11-18T14:57:18;7.72;;;3.13;;
7338;SDS011;33747;49.524;8.390;2023-11-18T14:59:44;10.32;;;3.38;;
7338;SDS011;33747;49.524;8.390;2023-11-18T15:02:09;7.15;;;2.85;;
7338;SDS011;33747;49.524;8.390;2023-11-18T15:04:34;7.32;;;2.50;;
7338;SDS011;33747;49.524;8.390;2023-11-18T15:07:00;6.82;;;2.78;;
7338;SDS011;33747;49.524;8.390;2023-11-18T15:09:26;7.15;;;3.75;;
7338;SDS011;33747;49.524;8.390;2023-11-18T15:11:56;6.43;;;3.22;;
7338;SDS011;33747;49.524;8.390;2023-11-18T15:14:23;7.93;;;3.40;;
7338;SDS011;33747;49.524;8.390;2023-11-18T15:16:49;11.48;;;3.50;;
7338;SDS011;33747;49.524;8.390;2023-11-18T15:19:15;3.72;;;3.20;;